Terminal Aerodrome Forecast
Issued by NWS Louisville, KY

Home | Current Version | Previous Version | Text Only | Print | Product List | Glossary On
Versions: 1 2 3 4 5 6 7 8 9 10 11 12 13 14 15 16
112
FTUS43 KLMK 220531
TAFLEX
TAF
KLEX 220531Z 2206/2306 17010KT P6SM BKN100
     FM221200 18015G23KT P6SM BKN200
     FM221800 19015G24KT P6SM -SHRA BKN035
      TEMPO 2222/2301 5SM -SHRA BKN025
     FM230200 21016G26KT P6SM VCSH BKN070=

USA.gov is the U.S. government's official web portal to all federal, state and local government web resources and services.